Tiempo atmosférico en la estación meteorológica de Asturias Aeropuerto, Asturias (127 m.)



Fecha
DESCASC
Temp. máxima en grados centígrados (hora)
DESCASC
Temp. mínima en grados centígrados (hora)
DESCASC
Temp. media en grados centígrados
DESCASC
Racha de viento máxima en m/sg (hora)
DESCASC
Velocidad máxima media en intervalos de 10 minutos(hora)
DESCASC
Precipitaciones diarias en mm
DESCASC
Precipitaciones de 00:00 a 06:00 en mm
DESCASC
Precipitaciones de 06:00 a 12:00 en mm
DESCASC
Precipitaciones de 12:00 a 18:00 en mm
DESCASC
Precipitaciones de 18:00 a 24:00 en mm
DESCASC
08-12-2019 14.7 (06:50) 9.6 (22:50) 12.2 13.33 (13:00) 8.61 (15:00) 5.7 0 3.2 2.5 0
07-12-2019 16 (15:40) 8.5 (00:00) 12.3 9.17 (12:10) 4.72 (09:10) 0 0 0 0 0
06-12-2019 12.9 (16:40) 7 (07:00) 9.9 8.89 (09:30) 4.44 (16:30) 0 0 0 0 0
05-12-2019 11.7 (12:10) 6.7 (00:00) 9.2 8.33 (09:10) 4.44 (01:30) 1 0.7 0.2 0.1 0
04-12-2019 11.9 (15:30) 1.6 (00:00) 6.7 7.22 (01:30) 5.28 (01:50) 0 0 0 0 0
03-12-2019 10.3 (13:20) 3.1 (00:00) 6.7 10.28 (13:20) 5.83 (13:00) 0 0 0 0 0
02-12-2019 10.3 (08:00) 6.7 (00:00) 8.5 13.89 (10:50) 8.33 (14:30) 10.5 5.7 4.8 0 0
01-12-2019 10.8 (15:00) 8 (00:00) 9.4 12.78 (16:40) 7.22 (16:40) 31.3 0.2 23.4 6 1.7
30-11-2019 16 (14:40) 9.8 (00:00) 12.9 17.5 (07:00) 11.67 (07:00) 9.3 2.3 6.3 0.7 0
29-11-2019 16.2 (12:50) 9.6 (00:00) 12.9 9.72 (23:20) 6.11 (23:20) 0 0 0 0 0
28-11-2019 14.4 (03:20) 12.1 (00:00) 13.3 14.44 (03:30) 10 (03:50) 6.5 0 0 2.1 4.4
27-11-2019 15.5 (12:20) 11 (00:00) 13.3 16.94 (00:20) 11.11 (00:20) 0.5 0.1 0 0 0.4
26-11-2019 19.7 (17:00) 11.1 (00:00) 15.4 29.17 (18:30) 18.89 (18:40) 1.6 0 0 0 1.6
25-11-2019 15.9 (00:50) 10.4 (00:00) 13.1 12.78 (07:40) 8.89 (08:00) 0 0 0 0 0
24-11-2019 15.3 (23:59) 9.5 (00:00) 12.4 12.78 (00:10) 8.61 (00:20) 2.4 0 0 0.8 1.6
23-11-2019 11.7 (09:30) 9.1 (00:00) 10.4 30.28 (02:10) 18.61 (02:10) 29 11.2 5.7 8.2 3.9
22-11-2019 16.3 (15:10) 7.1 (00:00) 11.7 20.56 (23:59) 14.17 (23:59) 13.1 2.4 2.6 0.5 7.6
21-11-2019 15 (15:10) 7.6 (00:00) 11.3 12.78 (13:50) 7.78 (13:50) 0 0 0 0 0
20-11-2019 13.1 (16:50) 7.2 (00:00) 10.2 9.17 (14:00) 4.72 (07:10) 0.8 0 0 0 0.8
19-11-2019 13.2 (14:30) 3.9 (00:00) 8.5 9.17 (03:40) 6.11 (07:30) 0.6 0 0 0 0.6
18-11-2019 12.2 (13:10) 6.8 (00:00) 9.5 7.78 (07:40) 4.72 (10:40) 10 6.1 3.3 0.6 0
17-11-2019 12 (14:30) 8.5 (00:00) 10.3 20 (16:30) 11.39 (16:30) 12.3 0.7 2 3.2 6.4
16-11-2019 11.7 (14:30) 5.3 (00:00) 8.5 15 (12:40) 10 (15:10) 4.4 2 0.6 1.8 0
15-11-2019 10.4 (15:00) 6.4 (00:00) 8.4 16.11 (06:10) 9.72 (06:10) 20.6 3.3 5.3 7.6 4.4
14-11-2019 9.7 (20:30) 5.8 (00:00) 7.8 22.78 (02:40) 16.11 (01:20) 19.7 13.5 0.1 2.6 3.5
13-11-2019 13.5 (19:30) 8.5 (00:00) 11 22.22 (21:50) 14.44 (22:00) 20.8 1.8 0 0 19
12-11-2019 12.8 (12:20) 8.8 (00:00) 10.8 9.72 (01:10) 5.83 (03:10) 29.8 0.4 0.2 5.4 23.8
11-11-2019 13.7 (06:50) 8.4 (00:00) 11 15 (06:50) 11.11 (07:10) 7 2.2 3.3 0 1.5
10-11-2019 11.9 (08:30) 8 (00:00) 9.9 18.06 (09:10) 12.5 (14:20) 7.2 1.7 2.9 2.4 0.2

Gráficas

Temp. máximas Temp. mínimas Temp. medias Precipitaciones Rachas de viento máximas Velocidades máximas media en intervalos de 10 minutos

Datos horarios

Fecha y hora oficial Temperatura (ºC) Velocidad del viento (km/h) Dirección del viento Racha (km/h) Dirección de racha Precipitación (mm) Presión (hPa) Tendencia (hPa) Humedad (%)
2019-12-09 23:00:00 8.1 12 Sudoeste 17 Sur 0 1016.8 -0.7 87
2019-12-09 22:00:00 8.7 10 Sudoeste 17 Sudoeste 0 1016.8 -0.3 88
2019-12-09 21:00:00 10 6 Sudoeste 9 Sudoeste 0 1017.3 0.5 90
2019-12-09 20:00:00 11.5 5 Oeste 11 Oeste 0 1017.5 0.7 83
2019-12-09 19:00:00 11.7 4 Noroeste 17 Noroeste 0 1017.1 0.6 83
2019-12-09 18:00:00 12 9 Noroeste 22 Oeste 0 1016.8 0.5 77
2019-12-09 17:00:00 12.2 12 Noroeste 22 Oeste 0 1016.8 0.4 78
2019-12-09 16:00:00 12.7 12 Noroeste 32 Oeste 0 1016.5 -0.3 76
2019-12-09 15:00:00 13 22 Oeste 41 Noroeste 0 1016.3 -0.4 71
2019-12-09 14:00:00 13 23 Oeste 37 Oeste 0 1016.4 -0.1 69
2019-12-09 13:00:00 13.4 22 Oeste 37 Oeste 0 1016.8 0.6 67
2019-12-09 12:00:00 12.8 18 Oeste 37 Oeste 0 1016.7 1.3 68
2019-12-09 11:00:00 12.8 20 Oeste 39 Oeste 0 1016.5 1.3 65
2019-12-09 10:00:00 11.6 16 Oeste 42 Oeste 0 1016.2 2.3 66
2019-12-09 09:00:00 12.1 21 Oeste 46 Oeste 0 1015.4 1.9 64
2019-12-09 08:00:00 12.2 25 Oeste 52 Oeste 0 1015.2 1.7 62
2019-12-09 07:00:00 12.3 30 Oeste 50 Oeste 0 1013.9 0.8 62
2019-12-09 06:00:00 11.9 28 Oeste 55 Oeste 0 1013.5 0.9 63
2019-12-09 05:00:00 11.6 32 Oeste 54 Oeste 0 1013.5 1.4 61
2019-12-09 04:00:00 10.9 22 Oeste 35 Oeste 0 1013.1 1.2 59
2019-12-09 03:00:00 11 21 Oeste 32 Oeste 0 1012.6 0.5 54
2019-12-09 02:00:00 9.2 12 Oeste 21 Sudoeste 0 1012.1 0.6 65
2019-12-09 01:00:00 9.2 16 Sudoeste 24 Sudoeste 0 1011.9 -0.1 72
2019-12-09 00:00:00 10.2 16 Oeste 33 Oeste 0 1012.1 0.4 70
2019-12-08 23:00:00 10.6 23 Oeste 37 Oeste 0 1011.5 0.1 74
2019-12-08 22:00:00 11.1 22 Oeste 35 Oeste 0 1012 0.8 70
2019-12-08 21:00:00 11.1 22 Oeste 35 Oeste 0 1011.7 1.1 71
2019-12-08 20:00:00 11.2 21 Oeste 32 Oeste 0 1011.4 1.3 75
2019-12-08 19:00:00 11.4 19 Oeste 37 Oeste 0 1011.2 1.3 80
2019-12-08 18:00:00 11.9 18 Oeste 33 Oeste 0 1010.6 1.3 83
2019-12-08 17:00:00 12.1 18 Oeste 42 Noroeste 0 1010.1 1.5 83
2019-12-08 16:00:00 12.1 22 Oeste 45 Oeste 0 1009.9 2 91
2019-12-08 15:00:00 12.1 31 Oeste 45 Oeste 1.1 1009.3 1.2 100
2019-12-08 14:00:00 11.9 29 Oeste 45 Oeste 0.7 1008.6 1.2 100
2019-12-08 13:00:00 13.5 28 Oeste 48 Noroeste 0.7 1007.9 1.3 100
2019-12-08 12:00:00 14.1 13 Oeste 22 Noroeste 1.1 1008.1 2.5 100
2019-12-08 11:00:00 14.1 9 Oeste 21 Oeste 0.1 1007.4 2.2 98
2019-12-08 10:00:00 13.6 9 Oeste 18 Sudoeste 0.6 1006.6 1.9 97
2019-12-08 09:00:00 13.8 12 Sudoeste 32 Oeste 1 1005.6 0.8 91
2019-12-08 08:00:00 13.9 11 Sudoeste 21 Sudoeste 0.4 1005.2 -0.1 83
2019-12-08 07:00:00 14.7 15 Sudoeste 24 Sudoeste 0 1004.7 -1.1 73
2019-12-08 06:00:00 13.4 15 Sudoeste 24 Sudoeste 0 1004.8 -1.1 77
2019-12-08 05:00:00 12.5 10 Sudoeste 13 Sur 0 1005.3 -0.9 79
2019-12-08 04:00:00 12 7 Sudoeste 9 Sur 0 1005.8 -1 82
2019-12-08 03:00:00 12.4 9 Sudoeste 15 Sudoeste 0 1005.9 -1.1 78
2019-12-08 02:00:00 12.4 9 Sudoeste 17 Sudoeste 0 1006.2 -1 77
2019-12-08 01:00:00 12.3 12 Sudoeste 21 Sudoeste 0 1006.8 -0.5 80
2019-12-08 00:00:00 11.8 13 Sudoeste 21 Sudoeste 0 1007 -0.6 83
2019-12-07 23:00:00 12 15 Sudoeste 21 Sudoeste 0 1007.2 -0.4 83
2019-12-07 22:00:00 12.5 11 Sudoeste 15 Sudoeste 0 1007.3 -0.1 80
2019-12-07 21:00:00 11.7 5 Sur 15 Sudeste 0 1007.6 0.2 84
2019-12-07 20:00:00 10.6 11 Sudeste 13 Sudeste 0 1007.6 0.8 81
2019-12-07 19:00:00 11.3 5 Sudeste 11 Sudeste 0 1007.4 1.2 87
2019-12-07 18:00:00 12.7 5 Norte 9 Norte 0 1007.4 0.9 75
2019-12-07 17:00:00 14.3 5 Norte 11 Sur 0 1006.8 -0.4 80
2019-12-07 16:00:00 15.5 7 Sudeste 11 Sudeste 0 1006.2 -1.6 68
2019-12-07 15:00:00 15 4 Nordeste 8 Nordeste 0 1006.5 -1.7 68
2019-12-07 14:00:00 15 4 Noroeste 15 Sudoeste 0 1007.2 -1 66
2019-12-07 13:00:00 13.8 8 Sudoeste 33 Sur 0 1007.8 -0.1 63
2019-12-07 12:00:00 12.3 14 Sudoeste 28 Sudoeste 0 1008.2 0.7 64
2019-12-07 11:00:00 10.7 14 Sudoeste 22 Sur 0 1008.2 0.9 67
2019-12-07 10:00:00 10.1 14 Sudoeste 26 Sur 0 1007.9 1 70
2019-12-07 09:00:00 9.9 15 Sudoeste 22 Sudoeste 0 1007.5 0.7 71
2019-12-07 08:00:00 9.8 14 Sudoeste 24 Sudoeste 0 1007.3 0.3 73
2019-12-07 07:00:00 9 13 Sudoeste 21 Sudoeste 0 1006.9 -0.3 77
2019-12-07 06:00:00 9.3 10 Sudoeste 21 Sur 0 1006.8 -0.5 75
2019-12-07 05:00:00 8.8 12 Sudoeste 24 Sudoeste 0 1007 -0.4 79
2019-12-07 04:00:00 9.2 12 Sudoeste 21 Sudoeste 0 1007.2 -0.7 81
2019-12-07 03:00:00 9.3 14 Sudoeste 21 Sudoeste 0 1007.3 -0.6 83
2019-12-07 02:00:00 9.4 12 Sudoeste 21 Sudoeste 0 1007.4 -0.5 84
2019-12-07 01:00:00 8.9 12 Sudoeste 24 Sudoeste 0 1007.9 -0.1 88
2019-12-07 00:00:00 8.5 14 Sudoeste 22 Sudoeste 0 1007.9 0.2 93
2019-12-06 23:00:00 8.3 12 Sudoeste 18 Sudoeste 0 1007.9 0.8 94
2019-12-06 22:00:00 8.2 9 Sudoeste 17 Sudoeste 0 1008 1 92
2019-12-06 21:00:00 9.2 9 Sudoeste 21 Sudoeste 0 1007.7 1 90
2019-12-06 20:00:00 9.4 9 Sudoeste 15 Sur 0 1007.1 0.4 89
2019-12-06 19:00:00 9.7 11 Oeste 17 Oeste 0 1007 0.5 85
2019-12-06 18:00:00 10.9 8 Sudoeste 17 Oeste 0 1006.7 0.2 81
2019-12-06 17:00:00 12.2 14 Oeste 22 Oeste 0 1006.7 -0.2 77
2019-12-06 16:00:00 12.2 14 Noroeste 24 Noroeste 0 1006.5 -1 80
2019-12-06 15:00:00 12 10 Noroeste 18 Noroeste 0 1006.5 -1.5 77
2019-12-06 14:00:00 11.7 6 Noroeste 17 Oeste 0 1006.9 -1.8 79
2019-12-06 13:00:00 10.6 7 Sudoeste 15 Sur 0 1007.5 -0.6 78
2019-12-06 12:00:00 10.4 5 Sudoeste 21 Sur 0 1008 0.9 84
2019-12-06 11:00:00 9.3 9 Sudoeste 21 Sur 0 1008.7 1.5 89
2019-12-06 10:00:00 7.8 9 Sudoeste 32 Sudoeste 0 1008.1 1 86
2019-12-06 09:00:00 7.2 14 Sudoeste 30 Sudoeste 0 1007.1 0.1 90
2019-12-06 08:00:00 7.3 13 Sudoeste 21 Sudoeste 0 1007.2 -0.5 89
2019-12-06 07:00:00 7.1 12 Sudoeste 30 Sudoeste 0 1007.1 -0.9 94
2019-12-06 06:00:00 7.3 15 Sur 22 Sur 0 1007 -0.7 95
2019-12-06 05:00:00 7.8 9 Sur 13 Sur 0 1007.7 -0.2 95
2019-12-06 04:00:00 8.1 5 Sudoeste 15 Sur 0 1008 -0.5 92
2019-12-06 03:00:00 8.4 12 Sudoeste 17 Sur 0 1007.7 -0.8 95
2019-12-06 02:00:00 9.3 13 Sur 18 Sudoeste 0 1007.9 -0.5 90
2019-12-06 01:00:00 9.5 11 Sur 17 Sur 0 1008.5 0.1 92
2019-12-06 00:00:00 9.3 10 Sudoeste 17 Sudoeste 0 1008.5 0.1 94
2019-12-05 23:00:00 9.3 8 Sur 18 Sur 0 1008.4 0 98
2019-12-05 22:00:00 9.3 4 Sur 11 Sudeste 0 1008.4 -0.1 99
2019-12-05 21:00:00 9.2 9 Sudeste 13 Sudeste 0 1008.4 0 99
2019-12-05 20:00:00 9.9 9 Sudeste 15 Este 0 1008.4 0 99
2019-12-05 19:00:00 9.9 9 Sudeste 15 Este 0 1008.5 0.4 98
2019-12-05 18:00:00 10.5 9 Sudeste 11 Sudeste 0 1008.4 0 99
2019-12-05 17:00:00 10.8 7 Este 13 Este 0 1008.4 -0.5 98
2019-12-05 16:00:00 10.6 9 Sudeste 15 Sudeste 0 1008.1 -1 98
2019-12-05 15:00:00 10.4 10 Sudeste 17 Sudeste 0 1008.4 -0.7 98
2019-12-05 14:00:00 10.4 13 Sudeste 18 Este 0.1 1008.9 0 98
2019-12-05 13:00:00 10.9 10 Este 18 Este 0 1009.1 0.8 88
2019-12-05 12:00:00 11.2 10 Este 15 Este 0 1009.1 1.4 98
2019-12-05 11:00:00 8.5 7 Sur 15 Sur 0.2 1008.9 1.7 99
2019-12-05 10:00:00 8.2 5 Sur 30 Sur 0 1008.3 1.4 97
2019-12-05 09:00:00 7.9 9 Sur 15 Sur 0 1007.7 1 96
2019-12-05 08:00:00 7.4 12 Sur 21 Sudoeste 0 1007.2 0.8 98
2019-12-05 07:00:00 7.1 10 Sur 21 Sudoeste 0 1006.9 0.3 99
2019-12-05 06:00:00 6.9 14 Sudoeste 22 Sudoeste 0 1006.7 0.8 98
2019-12-05 05:00:00 6.9 12 Sur 21 Sudoeste 0.1 1006.4 1.3 98
2019-12-05 04:00:00 7.2 9 Sudoeste 13 Sudoeste 0.6 1006.6 1.2 94
2019-12-05 03:00:00 7.6 5 Sur 21 Sudoeste 0 1005.9 0.9 79
2019-12-05 02:00:00 7.8 15 Sudoeste 22 Sudoeste 0 1005.1 0.2 79
2019-12-05 01:00:00 7.6 12 Sudoeste 21 Sudoeste 0 1005.4 1.2 83
2019-12-05 00:00:00 7.7 15 Sudoeste 21 Sudoeste 0 1005 1.4 87
2019-12-04 23:00:00 7.5 12 Sudoeste 21 Sudoeste 0 1004.9 1.9 84
2019-12-04 22:00:00 7.9 13 Sudoeste 21 Sudoeste 0 1004.2 2 85
2019-12-04 21:00:00 7.8 10 Sudoeste 17 Sudoeste 0 1003.6 1.6 87
2019-12-04 20:00:00 7.3 6 Sudoeste 21 Sur 0 1003 1.9 91
2019-12-04 19:00:00 7.4 5 Sudoeste -- -- 0 1002.2 1.6 85
2019-12-04 18:00:00 9.4 0 Calma 9 Noroeste 0 1002 1.5 79
2019-12-04 17:00:00 10.8 7 Noroeste 13 Noroeste 0 1001.1 0.7 72
2019-12-04 16:00:00 11.4 6 Noroeste 9 Noroeste 0 1000.6 0.1 67
2019-12-04 15:00:00 11.1 6 Noroeste 13 Oeste 0 1000.5 -0.4 66
2019-12-04 14:00:00 10.8 8 Oeste 13 Oeste 0 1000.4 -0.2 64
2019-12-04 13:00:00 8.8 10 Sudoeste 13 Sudoeste 0 1000.5 0.6 64
2019-12-04 12:00:00 7.8 10 Sudoeste 18 Sudoeste 0 1000.9 1.7 66
2019-12-04 11:00:00 5.5 13 Sudoeste 22 Sudoeste 0 1000.6 1.6 74
2019-12-04 10:00:00 3.1 16 Sudoeste 24 Sudoeste 0 999.9 1.5 82
2019-12-04 09:00:00 1.9 16 Sudoeste 24 Sudoeste 0 999.2 0.9 85
2019-12-04 08:00:00 1.7 14 Sudoeste 24 Sudoeste 0 999 0.6 87
2019-12-04 07:00:00 1.9 17 Sudoeste 24 Sudoeste 0 998.4 -0.1 88
2019-12-04 06:00:00 1.9 15 Sudoeste 24 Sudoeste 0 998.3 -0.6 90
2019-12-04 05:00:00 2.2 16 Sudoeste 24 Sur 0 998.4 -0.8 91
2019-12-04 04:00:00 2.3 15 Sudoeste 22 Sudoeste 0 998.5 -1.5 92
2019-12-04 03:00:00 3 15 Sudoeste 24 Sudoeste 0 998.9 -1.5 91
2019-12-04 02:00:00 2.9 16 Sudoeste 26 Sudoeste 0 999.2 -1.2 93
2019-12-04 01:00:00 3.1 17 Sudoeste 24 Sur 0 1000 -0.7 92
2019-12-04 00:00:00 3.8 12 Sur 21 Sudoeste 0 1000.4 -0.8 89
2019-12-03 23:00:00 3.2 9 Sur 13 Sudeste 0 1000.4 -1.2 85
2019-12-03 22:00:00 3.6 10 Sudeste 18 Sudeste 0 1000.7 -1 86
2019-12-03 21:00:00 3.6 15 Sudeste 17 Sudeste 0 1001.2 -0.7 87
2019-12-03 20:00:00 3.6 12 Sudeste 15 Sudeste 0 1001.6 -0.6 86
2019-12-03 19:00:00 4.9 9 Sudeste 21 Este 0 1001.7 -0.8 80
2019-12-03 18:00:00 7.5 13 Este 22 Este 0 1001.9 -1.2 70
2019-12-03 17:00:00 8.8 12 Este 26 Este 0 1002.2 -2 65
2019-12-03 16:00:00 9.6 14 Este 28 Este 0 1002.5 -2.7 62
2019-12-03 15:00:00 10 17 Este 35 Este 0 1003.1 -3.1 61
2019-12-03 14:00:00 9.7 19 Este 37 Este 0 1004.2 -2.6 59
2019-12-03 13:00:00 9.6 21 Este 35 Este 0 1005.2 -1.7 61
2019-12-03 12:00:00 9.1 19 Este 33 Este 0 1006.2 -1.1 64
2019-12-03 11:00:00 9.2 14 Sudeste 22 Sudeste 0 1006.8 -0.5 68
2019-12-03 10:00:00 7.6 14 Sudeste 21 Sudeste 0 1006.9 -0.5 75
2019-12-03 09:00:00 5 14 Sudeste 18 Sudeste 0 1007.3 -0.5 83
2019-12-03 08:00:00 5.8 15 Sudeste 21 Sudeste 0 1007.3 -1.1 80
2019-12-03 07:00:00 6.3 15 Sudeste 22 Sudeste 0 1007.4 -1.6 79
2019-12-03 06:00:00 5.3 14 Sudeste 18 Sudeste 0 1007.8 -1.3 87
2019-12-03 05:00:00 5.6 9 Sudeste 13 Sudeste 0 1008.4 -1.1 84
2019-12-03 04:00:00 6.1 11 Sudeste 15 Sudeste 0 1009 -0.7 84
2019-12-03 03:00:00 5.9 9 Sudeste 15 Sudeste 0 1009.1 -0.9 84
2019-12-03 02:00:00 5.3 11 Sudeste 18 Sudeste 0 1009.5 -0.6 83
2019-12-03 01:00:00 6.4 12 Sudeste 17 Sudeste 0 1009.7 -0.6 82
2019-12-03 00:00:00 6.7 11 Sudeste 15 Sudeste 0 1010 -0.4 81
2019-12-02 23:00:00 7.6 12 Sudeste 15 Sudeste 0 1010.1 -0.4 77
2019-12-02 22:00:00 6.9 10 Sudeste 15 Sudeste 0 1010.3 -0.1 80
2019-12-02 21:00:00 7.2 7 Sudeste 24 Este 0 1010.4 0.4 75
2019-12-02 20:00:00 8.9 14 Este 30 Este 0 1010.5 0.9 64
2019-12-02 19:00:00 9.1 16 Este 39 Este 0 1010.4 1 63
2019-12-02 18:00:00 9 24 Este 42 Este 0 1010 0.9 68
2019-12-02 17:00:00 9.8 24 Este 41 Este 0 1009.6 0.1 67
2019-12-02 16:00:00 9.9 26 Este 45 Este 0 1009.4 -0.4 71
2019-12-02 15:00:00 10.1 28 Este 48 Este 0 1009.1 -1 72
2019-12-02 14:00:00 10.3 23 Este 46 Este 0 1009.5 -0.1 70
2019-12-02 13:00:00 10.2 21 Este 46 Este 0 1009.8 1 68
2019-12-02 12:00:00 10.1 22 Este 45 Nordeste 0 1010.1 2.1 67
2019-12-02 11:00:00 10 24 Este 50 Este 0 1009.6 2.3 76
2019-12-02 10:00:00 10 20 Este 42 Nordeste 0 1008.8 2.1 77
2019-12-02 09:00:00 10.1 21 Nordeste 46 Nordeste 0 1008 1.8 79
2019-12-02 08:00:00 10.2 23 Nordeste 48 Nordeste 0 1007.3 1.2 83
2019-12-02 07:00:00 8.4 9 Este 15 Este 4.8 1006.7 1 100
2019-12-02 06:00:00 7.8 9 Sudoeste 13 Sudoeste 2.5 1006.2 0.6 99
2019-12-02 05:00:00 7.9 9 Sudoeste 13 Sudoeste 1.6 1006.1 0.8 98
2019-12-02 04:00:00 8.2 9 Sur 13 Sudoeste 0.3 1005.7 0.7 97
2019-12-02 03:00:00 8.8 8 Este 17 Nordeste 0.6 1005.6 1 96
2019-12-02 02:00:00 8.9 9 Sudeste 30 Nordeste 0.3 1005.3 0.8 93
2019-12-02 01:00:00 9.3 9 Nordeste 30 Nordeste 0.4 1005 0.5 80
2019-12-02 00:00:00 9.3 12 Nordeste 33 Nordeste 0 1004.6 0.6 77
2019-12-01 23:00:00 9.2 15 Nordeste 35 Nordeste 0.3 1004.5 0.9 85
2019-12-01 22:00:00 9.3 19 Nordeste 37 Nordeste 0 1004.5 1.9 78
2019-12-01 21:00:00 9.1 10 Este 41 Nordeste 1.4 1004 2.3 86
2019-12-01 20:00:00 10 19 Nordeste 37 Nordeste 0 1003.6 2.7 75
2019-12-01 19:00:00 10.4 19 Nordeste 37 Nordeste 0 1002.6 2.5 73
2019-12-01 18:00:00 10.4 22 Nordeste 45 Nordeste 0.1 1001.7 1.7 76
2019-12-01 17:00:00 9.4 24 Nordeste 46 Nordeste 2.8 1000.9 1 96
2019-12-01 16:00:00 10.2 8 Nordeste 18 Este 2.6 1000.1 0.6 95
2019-12-01 15:00:00 10.7 8 Sudoeste 21 Sur 0.1 1000 0.4 93
2019-12-01 14:00:00 9.9 13 Sur 18 Sur 0.3 999.9 1.1 95
2019-12-01 13:00:00 10.3 9 Sur 15 Sudoeste 0.1 999.5 2.1 95
2019-12-01 12:00:00 9.2 14 Sudeste 28 Sudeste 1.7 999.6 3.3 97
2019-12-01 11:00:00 9.2 9 Este 26 Este 8.3 998.8 3.6 92
2019-12-01 10:00:00 9 9 Sur 45 Sudoeste 13.1 997.4 3.2 96
2019-12-01 09:00:00 8.8 10 Sudoeste 18 Sur 0.3 996.3 2.8 87
2019-12-01 08:00:00 8.4 10 Sur 13 Sur 0 995.2 1.8 87
2019-12-01 07:00:00 8.6 5 Sudeste 13 Sur 0 994.2 0.8 84
2019-12-01 06:00:00 8.8 8 Sur 15 Sur 0 993.5 0 80
2019-12-01 05:00:00 8.3 7 Sudoeste 13 Sudeste 0 993.4 -0.4 88
2019-12-01 04:00:00 8.7 10 Sur 15 Sur 0.2 993.4 -1.1 84
2019-12-01 03:00:00 8.7 9 Sudeste 18 Sudoeste 0 993.5 -1.6 83
2019-12-01 02:00:00 8.9 9 Este 13 Sudeste 0 993.8 -1.7 77
2019-12-01 01:00:00 9 7 Sur 17 Sudoeste 0 994.5 -1.8 73
2019-12-01 00:00:00 10 11 Sur 13 Sudeste 0 995.1 -1.4 68
2019-11-30 23:00:00 11.4 6 Sudoeste 21 Sudoeste 0 995.5 -1 62
2019-11-30 22:00:00 11.4 10 Sur 22 Sudoeste 0 996.3 -0.4 61
2019-11-30 21:00:00 11.7 15 Sudoeste 26 Sur 0 996.5 -0.5 60
2019-11-30 20:00:00 10.9 14 Sudoeste 28 Sudoeste 0 996.5 -0.9 65
2019-11-30 19:00:00 11.2 19 Sudoeste 33 Sudoeste 0 996.7 -1 63
2019-11-30 18:00:00 10.8 19 Sudoeste 32 Sudoeste 0 997 -0.8 67
2019-11-30 17:00:00 10.7 13 Sudoeste 59 Oeste 0.3 997.4 0.1 76
2019-11-30 16:00:00 12.1 20 Sudoeste 50 Oeste 0.4 997.7 -0.3 66
2019-11-30 15:00:00 14.2 31 Oeste 55 Oeste 0 997.8 -1.4 60
2019-11-30 14:00:00 15.6 25 Oeste 46 Oeste 0 997.3 -1.6 50
2019-11-30 13:00:00 14.7 13 Sudoeste 33 Sudoeste 0 998 -0.1 59
2019-11-30 12:00:00 12.8 19 Sudoeste 35 Oeste 0 999.2 0.7 61
2019-11-30 11:00:00 11.7 12 Sudoeste 18 Sudoeste 0 998.9 0.5 88
2019-11-30 10:00:00 10.9 11 Sudoeste 24 Sudoeste 0 998.1 -0.1 91
2019-11-30 09:00:00 10.9 13 Oeste 35 Oeste 1.9 998.5 2.2 94
2019-11-30 08:00:00 10.7 20 Oeste 59 Oeste 1.3 998.4 2.1 95
2019-11-30 07:00:00 11.4 42 Oeste 63 Oeste 3.1 998.2 1.4 98
2019-11-30 06:00:00 13.9 18 Oeste 41 Oeste 2.3 996.3 -0.7 92
2019-11-30 05:00:00 12.2 19 Sudoeste 30 Sudoeste 0 996.3 -1.4 78
2019-11-30 04:00:00 12.8 16 Sur 21 Sur 0 996.8 -1.8 71
2019-11-30 03:00:00 12.4 14 Sur 28 Sudoeste 0 997 -2.7 70
2019-11-30 02:00:00 11.2 15 Sudoeste 32 Sudoeste 0 997.7 -2.9 81
2019-11-30 01:00:00 11.3 20 Sudoeste 30 Sudoeste 0 998.6 -3.3 82
2019-11-30 00:00:00 11.5 15 Sur 35 Sur 0 999.7 -3.3 82
2019-11-29 23:00:00 10.9 19 Sur 32 Sur 0 1000.6 -2.7 87
2019-11-29 22:00:00 10.2 13 Sur 18 Sudoeste 0 1001.9 -- 90
2019-11-29 21:00:00 10.3 11 Sudeste 18 Este 0 1003 -0.5 94
2019-11-29 20:00:00 10.1 8 Sudeste -- -- 0 1003.3 0.2 94
2019-11-29 19:00:00 -- -- -- -- -- -- -- -- --
2019-11-29 18:00:00 11.7 9 Este 11 Este 0 1003.5 0.3 76
2019-11-29 17:00:00 13.6 0 Calma 9 Este 0 1003.1 -0.9 68
2019-11-29 16:00:00 14.7 4 Norte 9 Norte 0 1002.8 -1.6 64
2019-11-29 15:00:00 15.2 3 Norte 9 Nordeste 0 1003.2 -1.6 60
2019-11-29 14:00:00 15.6 6 Noroeste 11 Noroeste 0 1004 -0.6 62
2019-11-29 13:00:00 15.9 8 Oeste 13 Oeste 0 1004.4 0.4 63
2019-11-29 12:00:00 14.9 4 Oeste 22 Sudoeste 0 1004.8 1.5 76
2019-11-29 11:00:00 11.6 10 Sudoeste 18 Sudoeste 0 1004.6 1.7 95
2019-11-29 10:00:00 10.5 14 Sudoeste 21 Sudoeste 0 1004 1.4 100
2019-11-29 09:00:00 10 10 Sudoeste 18 Sudoeste 0 1003.3 1.2 97
2019-11-29 08:00:00 10.5 11 Sudoeste 28 Oeste 0 1002.9 1.5 97
2019-11-29 07:00:00 10.9 9 Sudoeste 28 Sudoeste 0 1002.6 1.4 97
2019-11-29 06:00:00 10.6 10 Sudoeste 13 Sudoeste 0 1002.1 1.7 96
2019-11-29 05:00:00 11.7 7 Sudoeste 13 Oeste 0 1001.4 1.3 87
2019-11-29 04:00:00 12.8 6 Oeste 18 Oeste 0 1001.2 1.5 87
2019-11-29 03:00:00 13 17 Oeste 28 Oeste 0 1000.4 1.6 92
2019-11-29 02:00:00 13 17 Oeste 30 Oeste 0 1000.1 1.9 90
2019-11-29 01:00:00 12.9 16 Oeste 30 Oeste 0 999.7 2.3 90
2019-11-29 00:00:00 12.8 24 Oeste 32 Oeste 0 998.8 2.3 90
2019-11-28 23:00:00 13.1 18 Oeste 32 Oeste 0 998.2 3.1 87
2019-11-28 22:00:00 12.3 14 Oeste 22 Oeste 1.1 997.4 3.8 100
2019-11-28 21:00:00 12.6 8 Noroeste 17 Oeste 1.5 996.5 3.5 100
2019-11-28 20:00:00 12.6 10 Oeste 18 Oeste 1.7 995.1 1.6 99
2019-11-28 19:00:00 12.8 13 Sudoeste 24 Sudoeste 0.1 993.6 -1.2 91
2019-11-28 18:00:00 12.1 9 Sudoeste 18 Sudeste 0 993 -2.7 96
2019-11-28 17:00:00 12.5 11 Sudeste 18 Este 0.4 993.5 -1.4 97
2019-11-28 16:00:00 12.2 7 Sur 17 Oeste 0.8 994.8 -0.9 95
2019-11-28 15:00:00 12.7 13 Oeste 18 Noroeste 0.9 995.7 -0.3 90
2019-11-28 14:00:00 13.7 3 Sudoeste 18 Sudoeste 0 994.9 -1.2 81
2019-11-28 13:00:00 13.6 5 Sudoeste 15 Sudoeste 0 995.7 -0.3 84
2019-11-28 12:00:00 13.7 6 Sur 13 Sudoeste 0 996 0.7 84
2019-11-28 11:00:00 13.4 10 Sudoeste 33 Oeste 0 996.1 1.3 82
2019-11-28 10:00:00 13 24 Oeste 35 Oeste 0 996 1.5 83
2019-11-28 09:00:00 13.5 26 Oeste 35 Oeste 0 995.3 1.1 76
2019-11-28 08:00:00 13.5 21 Oeste 33 Oeste 0 994.8 1.2 78
2019-11-28 07:00:00 13.6 24 Oeste 35 Oeste 0 994.5 1 77
2019-11-28 06:00:00 13.5 26 Oeste 39 Oeste 0 994.2 0.9 81
2019-11-28 05:00:00 13.7 23 Oeste 48 Oeste 0 993.6 0.1 78
2019-11-28 04:00:00 14.2 35 Oeste 52 Oeste 0 993.5 0.4 68
2019-11-28 03:00:00 14.1 20 Oeste 42 Oeste 0 993.3 0.5 69
2019-11-28 02:00:00 14 29 Oeste 46 Oeste 0 993.5 0.7 71
2019-11-28 01:00:00 13.5 10 Noroeste 22 Oeste 0 993.1 0.5 73
2019-11-28 00:00:00 13.6 13 Sudoeste 37 Oeste 0 992.8 0.3 68
2019-11-27 23:00:00 14 26 Oeste 41 Oeste 0 992.8 0.3 65
2019-11-27 22:00:00 12.3 10 Sudoeste 18 Oeste 0 992.6 0.3 75
2019-11-27 21:00:00 11.2 7 Sudoeste 28 Oeste 0 992.5 0.5 90
2019-11-27 20:00:00 11.8 21 Oeste 33 Oeste 0.2 992.5 0.6 93
2019-11-27 19:00:00 12.7 14 Oeste 28 Sudoeste 0.2 992.3 1 72
2019-11-27 18:00:00 12.7 12 Oeste 35 Oeste 0 992 0.2 80
2019-11-27 17:00:00 13.5 19 Sudoeste 35 Sudoeste 0 991.9 0.5 66
2019-11-27 16:00:00 13.6 21 Oeste 45 Oeste 0 991.3 -0.2 63
2019-11-27 15:00:00 14.5 27 Oeste 46 Oeste 0 991.8 0.3 61
2019-11-27 14:00:00 15 15 Oeste 42 Oeste 0 991.4 0.1 62
2019-11-27 06:00:00 13.8 26 Oeste 48 Oeste 0 988.9 1.2 55
2019-11-27 05:00:00 13.8 30 Oeste 54 Oeste 0 988.5 1.4 53
2019-11-27 04:00:00 14 26 Oeste 52 Oeste 0 988.3 1.7 55
2019-11-27 03:00:00 14.3 34 Oeste 58 Oeste 0 987.7 1.9 55
2019-11-27 02:00:00 14.2 38 Oeste 58 Oeste 0 987.1 1.5 57
2019-11-27 01:00:00 13 22 Oeste 61 Oeste 0.1 986.6 1.3 63
2019-11-27 00:00:00 13.9 37 Oeste 72 Sudoeste 0 985.8 0.3 55
2019-11-26 23:00:00 13.8 42 Oeste 68 Sudoeste 0 985.6 0.6 52
2019-11-26 22:00:00 13.2 30 Oeste 58 Oeste 0 985.3 1.2 62
2019-11-26 21:00:00 13.1 29 Oeste 58 Oeste 0 985.5 3.4 62
2019-11-26 20:00:00 13.1 36 Oeste 68 Oeste 0.6 985 2.5 63
2019-11-26 19:00:00 11.7 54 Oeste 105 Oeste 1 984.1 2 81
2019-11-26 18:00:00 17.3 27 Oeste 68 Oeste 0 982.1 -1.1 53
2019-11-26 17:00:00 19.5 29 Oeste 50 Oeste 0 982.5 -2.2 43
2019-11-26 16:00:00 18.7 8 Sudeste 18 Sudeste 0 982.1 -4.3 66
2019-11-26 15:00:00 16.6 7 Sudeste 15 Este 0 983.2 -4.5 76
2019-11-26 14:00:00 18 8 Este 13 Sudeste 0 984.7 -3.8 66
2019-11-26 13:00:00 19.2 8 Oeste 18 Oeste 0 986.4 -2.8 50
2019-11-26 12:00:00 18.2 10 Sur 18 Sur 0 987.7 -1.4 57
2019-11-26 11:00:00 18 13 Sur 22 Sur 0 988.5 -0.7 63
2019-11-26 10:00:00 15.6 10 Sur 15 Sudeste 0 989.2 0.4 80
2019-11-26 09:00:00 14.9 6 Sudeste 11 Sudeste 0 989.1 -0.2 81
2019-11-26 08:00:00 15.2 4 Nordeste 18 Norte 0 989.2 -0.3 76
2019-11-26 07:00:00 16.5 6 Sudeste 15 Sudeste 0 988.8 -0.9 65
2019-11-26 06:00:00 17.2 14 Oeste 22 Oeste 0 989.3 -0.7 61
2019-11-26 05:00:00 15 14 Sudoeste 21 Sudoeste 0 989.5 -1.1 65
2019-11-26 04:00:00 14.5 9 Sudoeste 21 Sudoeste 0 989.7 -2 65
2019-11-26 03:00:00 13.8 7 Sudoeste 17 Sur 0 990 -2.7 63
2019-11-26 02:00:00 15 9 Sudoeste 22 Sudoeste 0 990.6 -3.2 58
2019-11-26 01:00:00 11.4 11 Sudoeste 18 Sur 0 991.7 -2.4 79
2019-11-26 00:00:00 11.6 13 Sur 22 Sudoeste 0 992.7 -2.4 88
2019-11-25 23:00:00 11 12 Sudoeste 18 Sur 0 993.8 -2.1 94
2019-11-25 22:00:00 10.7 14 Sudeste 17 Sudeste 0 994.1 -2.1 95
2019-11-25 21:00:00 11.1 15 Sudeste 22 Sur 0 995.1 -0.9 93
2019-11-25 20:00:00 10.7 13 Sudeste 22 Sudeste 0 995.9 0.1 92
2019-11-25 19:00:00 10.9 7 Sudeste 9 Sudeste 0 996.2 1 87
2019-11-25 18:00:00 12.4 9 Sur 18 Oeste 0 996 0.4 81
2019-11-25 17:00:00 13.8 4 Oeste 30 Oeste 0 995.8 0.4 81
2019-11-25 16:00:00 14.3 15 Oeste 45 Oeste 0 995.2 -0.5 72
2019-11-25 15:00:00 14.3 26 Oeste 37 Oeste 0 995.6 -0.5 80
2019-11-25 14:00:00 14.9 24 Oeste 41 Oeste 0 995.4 -0.2 78
2019-11-25 13:00:00 14.1 26 Oeste 42 Oeste 0 995.7 0.7 81
2019-11-25 12:00:00 14.5 27 Oeste 37 Oeste 0 996.1 2 77
2019-11-25 11:00:00 14.8 10 Noroeste 30 Oeste 0 995.6 2.2 74
2019-11-25 10:00:00 14.2 21 Oeste 32 Oeste 0 995 2.1 76
2019-11-25 09:00:00 13.9 20 Oeste 39 Oeste 0 994.1 2.1 79
2019-11-25 08:00:00 13.7 32 Oeste 46 Oeste 0 993.4 1.5 85
2019-11-25 07:00:00 14.4 18 Oeste 39 Oeste 0 992.9 1.7 75
2019-11-25 06:00:00 15.1 21 Oeste 32 Oeste 0 992 1 65
2019-11-25 05:00:00 14.5 18 Oeste 33 Oeste 0 991.9 1.3 73
2019-11-25 04:00:00 13.7 10 Noroeste 33 Oeste 0 991.2 0.9 82
2019-11-25 03:00:00 13.6 26 Oeste 39 Oeste 0 991 0.7 99
2019-11-25 02:00:00 15.7 14 Noroeste 28 Oeste 0 990.6 0 68
2019-11-25 01:00:00 15.4 11 Sudoeste 28 Oeste 0 990.3 -0.4 65
2019-11-25 00:00:00 15.2 16 Oeste 28 Oeste 0 990.3 -0.3 68
2019-11-24 23:00:00 14.2 18 Sudoeste 32 Sudoeste 0 990.6 -0.5 74
2019-11-24 22:00:00 14.3 12 Sudoeste 21 Sudoeste 0 990.7 1 73
2019-11-24 21:00:00 13.4 11 Sudoeste 21 Sudoeste 0 990.6 0.7 81
2019-11-24 20:00:00 11.7 15 Oeste 24 Oeste 0.1 991.1 -0.3 93
2019-11-24 19:00:00 11.1 13 Sudeste 28 Sudeste 1.5 989.7 -1.8 92
2019-11-24 18:00:00 10.9 14 Sudeste 26 Sudeste 0.3 989.9 -2.5 89
2019-11-24 17:00:00 11.7 11 Sudeste 22 Sudeste 0 991.4 -1.7 80
2019-11-24 16:00:00 12.1 10 Sudeste 21 Sudoeste 0.5 991.5 -2.5 78
2019-11-24 15:00:00 14.8 13 Sudoeste 24 Sudoeste 0 992.4 -3.1 57
2019-11-24 14:00:00 14.6 9 Sudeste 17 Sur 0 993.1 -3.2 60
2019-11-24 13:00:00 13.4 12 Sudoeste 32 Sudoeste 0 994 -2.3 57
2019-11-24 12:00:00 12.7 13 Sudoeste 30 Sudoeste 0 995.5 -0.9 58
2019-11-24 11:00:00 11.6 13 Sudoeste 22 Sudoeste 0 996.3 -0.2 62
2019-11-24 10:00:00 10.8 12 Sudoeste 28 Sudoeste 0 996.3 0.1 62
2019-11-24 09:00:00 10.4 19 Sudoeste 37 Sur 0 996.4 -0.1 61
2019-11-24 08:00:00 9.7 20 Sudoeste 33 Sudoeste 0 996.5 0 65
2019-11-24 07:00:00 9.7 19 Sudoeste 30 Sudoeste 0 996.2 -0.2 67
2019-11-24 06:00:00 10.2 18 Sudoeste 26 Sudoeste 0 996.5 0.7 68
2019-11-24 05:00:00 9.9 16 Sudoeste 26 Sudoeste 0 996.5 0.6 73
2019-11-24 04:00:00 10.6 15 Sudoeste 39 Oeste 0 996.4 0.6 71
2019-11-24 03:00:00 10.8 23 Oeste 46 Oeste 0 995.8 0.2 68
2019-11-24 02:00:00 10.9 24 Oeste 41 Oeste 0 995.9 0.8 72
2019-11-24 01:00:00 10.4 22 Oeste 46 Oeste 0 995.8 0.9 74
2019-11-24 00:00:00 10.4 29 Oeste 50 Oeste 0.2 995.6 1.5 72
2019-11-23 23:00:00 10.3 31 Oeste 54 Oeste 0 995.1 1 73
2019-11-23 22:00:00 10.3 30 Oeste 55 Oeste 0 994.9 1.8 73
2019-11-23 21:00:00 9.9 31 Oeste 42 Oeste 0.7 994.1 2.1 81
2019-11-23 20:00:00 9.6 29 Oeste 61 Oeste 1.5 994.1 2.2 86
2019-11-23 19:00:00 9.8 30 Oeste 59 Oeste 1.5 993.1 2.1 85
2019-11-23 18:00:00 10.7 32 Oeste 59 Oeste 0.5 992 1.7 81
2019-11-23 17:00:00 10.6 36 Oeste 68 Oeste 0.7 991.9 2.5 80
2019-11-23 16:00:00 10.3 49 Oeste 67 Oeste 2.6 991 2.4 87
2019-11-23 15:00:00 9.9 33 Oeste 63 Oeste 3.7 990.3 1.7 92
2019-11-23 14:00:00 11.2 33 Oeste 68 Oeste 0.7 989.4 1.8 81
2019-11-23 13:00:00 11.2 32 Oeste 52 Oeste 0 988.6 2.4 83
2019-11-23 12:00:00 9.8 35 Oeste 67 Oeste 2 988.6 3.7 89
2019-11-23 11:00:00 9.4 35 Oeste 80 Oeste 1.1 987.6 4 90
2019-11-23 10:00:00 9.9 25 Oeste 63 Oeste 2.4 986.2 4 84
2019-11-23 09:00:00 10.2 36 Oeste 71 Oeste 0 984.9 4.2 80
2019-11-23 08:00:00 11.2 41 Oeste 68 Oeste 0 983.6 4.4 72
2019-11-23 07:00:00 10.9 42 Noroeste 76 Oeste 0.2 982.2 4.9 67
2019-11-23 06:00:00 11 40 Noroeste 87 Oeste 0.3 980.7 5.6 70
2019-11-23 05:00:00 10.8 66 Oeste 87 Oeste 0.7 979.2 6.4 75
2019-11-23 04:00:00 10.5 46 Noroeste 87 Noroeste 2.4 977.3 6 94
2019-11-23 03:00:00 11.3 44 Noroeste 109 Oeste 1.9 975.1 5 92
2019-11-23 02:00:00 11.2 56 Oeste 93 Oeste 1.4 972.8 3.9 94
2019-11-23 01:00:00 11.2 65 Oeste 96 Oeste 4.5 971.3 3.4 97
2019-11-23 00:00:00 10.6 51 Oeste 74 Oeste 4.3 970.1 3.2 90
2019-11-22 23:00:00 10.7 27 Oeste 61 Oeste 1.8 968.9 2.6 85
2019-11-22 22:00:00 10.9 24 Sudoeste 45 Oeste 1.3 967.9 1.7 86
2019-11-22 21:00:00 11.7 25 Sudoeste 46 Sudoeste 0.2 966.9 0.7 76
2019-11-22 20:00:00 12.2 28 Sudoeste 52 Sudoeste 0 966.3 -0.5 68
2019-11-22 19:00:00 12.6 25 Sudoeste 42 Sudoeste 0 966.2 -1.3 64
2019-11-22 18:00:00 13.3 21 Sudoeste 42 Sudoeste 0 966.2 -0.9 59
2019-11-22 17:00:00 13.8 21 Sudoeste 41 Sudoeste 0 966.8 -0.7 61
2019-11-22 16:00:00 14.9 21 Sudoeste 58 Oeste 0 967.5 0.5 59
2019-11-22 15:00:00 15.9 28 Oeste 48 Oeste 0 967.1 0 57
2019-11-22 14:00:00 14.8 12 Oeste 55 Oeste 0.2 967.5 -1.3 75
2019-11-22 13:00:00 14.4 16 Oeste 32 Oeste 0.3 967 -2.8 70
2019-11-22 12:00:00 13.9 8 Sudeste 37 Sudoeste 0 967.1 -3.5 75
2019-11-22 11:00:00 11 13 Sudoeste 42 Sur 1.7 968.8 -3.4 80
2019-11-22 10:00:00 9.1 10 Sudoeste 18 Sudeste 0.4 969.8 -3.7 82
2019-11-22 09:00:00 8.5 10 Sudeste 15 Sudeste 0 970.6 -5.4 86
2019-11-22 08:00:00 8.1 7 Sur 30 Sudeste 0 972.2 -6.4 88
2019-11-22 07:00:00 8 15 Sudeste 22 Sudeste 0.5 973.5 -6.8 90
2019-11-22 06:00:00 8 14 Sudeste 18 Este 1.5 976 -6 85
2019-11-22 05:00:00 7.3 11 Sudeste 13 Sudeste 0.9 978.6 -4.5 90
2019-11-22 04:00:00 8.3 8 Sudeste 21 Oeste 0 980.3 -4.5 72
2019-11-22 03:00:00 7.8 14 Sudoeste 22 Sur 0 982 -3.8 69
2019-11-22 02:00:00 7.4 8 Sur 17 Sur 0 983.1 -3.2 72
2019-11-22 01:00:00 8.2 13 Sudoeste 21 Sudoeste 0 984.8 -2.3 67
2019-11-22 00:00:00 8.1 11 Sudoeste 15 Sudoeste 0 985.8 -1.7 69
2019-11-21 23:00:00 9 10 Sur 17 Sur 0 986.3 -1.4 65
2019-11-21 22:00:00 9.3 9 Sudoeste 13 Sudoeste 0 987.1 -1.1 64
2019-11-21 21:00:00 9.8 10 Sudoeste 21 Sur 0 987.5 -0.8 65
2019-11-21 20:00:00 10.7 10 Sudoeste 26 Sudoeste 0 987.7 -0.1 59
2019-11-21 19:00:00 11 12 Sudoeste 22 Oeste 0 988.2 0.5 58
2019-11-21 18:00:00 11.1 9 Oeste 30 Sudoeste 0 988.3 0.6 58
2019-11-21 17:00:00 13.2 21 Sudoeste 37 Sudoeste 0 987.8 -0.2 50
2019-11-21 16:00:00 14.4 21 Oeste 35 Oeste 0 987.7 -0.6 46
2019-11-21 15:00:00 14.6 21 Sudoeste 37 Sudoeste 0 987.7 -1 48
2019-11-21 14:00:00 14.3 22 Sudoeste 46 Sudoeste 0 988 -0.6 50
2019-11-21 13:00:00 13.8 21 Sudoeste 39 Sudoeste 0 988.3 -0.6 53
2019-11-21 12:00:00 12.9 18 Sudoeste 33 Sudoeste 0 988.7 0.1 58
2019-11-21 11:00:00 11.1 20 Sudoeste 33 Sudoeste 0 988.6 0.4 61
2019-11-21 10:00:00 10.2 14 Sudoeste 30 Sudoeste 0 988.9 1 62
2019-11-21 09:00:00 8.5 18 Sudoeste 33 Sudoeste 0 988.6 0.8 66
2019-11-21 08:00:00 7.6 19 Sudoeste 30 Sudoeste 0 988.2 0.6 72
2019-11-21 07:00:00 8.5 16 Sur 24 Sudoeste 0 987.9 0.1 71
2019-11-21 06:00:00 7.9 13 Sur 22 Sur 0 987.8 0.1 74
2019-11-21 05:00:00 8.8 13 Sudoeste 28 Sudoeste 0 987.6 -0.2 72
2019-11-21 04:00:00 8.4 11 Sudoeste 22 Sudoeste 0 987.8 -0.1 75
2019-11-21 03:00:00 9.2 9 Sudoeste 22 Oeste 0 987.7 -0.2 77
2019-11-21 02:00:00 9.1 10 Sudoeste 17 Sudoeste 0 987.8 -0.3 71
2019-11-21 01:00:00 9.2 9 Sudoeste 18 Sudoeste 0 987.9 -0.2 73
2019-11-21 00:00:00 9.6 14 Sudoeste 22 Sudoeste 0 987.9 -0.4 72
2019-11-20 23:00:00 10.1 13 Sudoeste 21 Sudoeste 0 988.1 -0.2 69
2019-11-20 22:00:00 10 15 Sudoeste 22 Sudoeste 0 988.1 0.5 73
2019-11-20 21:00:00 9.6 9 Sur 13 Sur 0.8 988.3 0.8 89
2019-11-20 20:00:00 10.4 8 Sudoeste 13 Sudoeste 0 988.3 0.8 82
2019-11-20 19:00:00 10 7 Sudoeste 11 Sudoeste 0 987.6 -0.1 84
2019-11-20 18:00:00 10.6 5 Sudoeste 11 Norte 0 987.5 -0.6 91
2019-11-20 17:00:00 13.1 2 Sudeste 8 Norte 0 987.5 -1.3 78
2019-11-20 16:00:00 12 2 Este 13 Sur 0 987.7 -1.9 78
2019-11-20 15:00:00 11.6 10 Sur 18 Sudoeste 0 988.1 -2.2 73
2019-11-20 14:00:00 11.1 12 Sur 33 Sur 0 988.8 -1.9 74
2019-11-20 13:00:00 11 10 Sur 24 Sudoeste 0 989.6 -1.5 75
2019-11-20 12:00:00 11.1 12 Sudoeste 17 Sudoeste 0 990.3 -0.5 74
2019-11-20 11:00:00 9.6 11 Sudoeste 21 Sudoeste 0 990.7 -0.2 80
2019-11-20 10:00:00 7.7 13 Sur 21 Sur 0 991.1 -0.2 90
2019-11-20 09:00:00 7.3 12 Sudoeste 21 Sudoeste 0 990.8 -1 89
2019-11-20 08:00:00 7.5 10 Sudoeste 24 Sur 0 990.9 -1.5 89
2019-11-20 07:00:00 7.8 14 Sudoeste 22 Sur 0 991.3 -1.7 90
2019-11-20 06:00:00 8 11 Sur 21 Sudoeste 0 991.8 -1.9 92
2019-11-20 05:00:00 8.1 12 Sur 21 Sudoeste 0 992.4 -1.6 92
2019-11-20 04:00:00 8.1 9 Sudoeste 15 Sudoeste 0 993 -1.6 94
2019-11-20 03:00:00 8.6 12 Sudoeste 21 Sudoeste 0 993.7 -1.6 90
2019-11-20 02:00:00 8.8 5 Sur 22 Sudoeste 0 994 -2.2 89
2019-11-20 01:00:00 8.6 14 Sudoeste 21 Sur 0 994.6 -2 94
2019-11-20 00:00:00 8.8 12 Sur 21 Sur 0 995.3 -1.2 89
2019-11-19 23:00:00 8.8 9 Sur 15 Sur 0.1 996.2 -0.7 94
2019-11-19 22:00:00 8.6 10 Sur 13 Sur 0 996.6 -0.8 97
2019-11-19 21:00:00 8.7 12 Sudeste 15 Sudeste 0 996.5 -0.5 97
2019-11-19 20:00:00 9.3 3 Este 13 Noroeste 0.5 996.9 0 96
2019-11-19 19:00:00 10.4 3 Oeste 15 Oeste 0 997.4 0.4 76
2019-11-19 18:00:00 10.6 3 Noroeste 13 Oeste 0 997 -0.4 75
2019-11-19 17:00:00 11.3 0 Calma 11 Sudoeste 0 996.9 -1.2 68
2019-11-19 16:00:00 12.1 5 Sudoeste 21 Sur 0 997 -1.9 67
2019-11-19 15:00:00 12.6 6 Sudoeste 13 Sudoeste 0 997.4 -2.3 65
2019-11-19 14:00:00 12.3 8 Sur 24 Sudoeste 0 998.1 -2.1 62
2019-11-19 13:00:00 10.3 13 Sur 24 Sur 0 998.9 -1.4 62
2019-11-19 12:00:00 8.8 17 Sudoeste 28 Sur -- 999.7 -0.9 68
2019-11-19 11:00:00 6.8 18 Sudoeste 30 Sudoeste -- 1000.2 -0.5 76
2019-11-19 10:00:00 5 20 Sudoeste 30 Sudoeste -- 1000.3 -0.6 82
2019-11-19 09:00:00 3.9 19 Sudoeste 32 Sudoeste 0 1000.6 -0.6 89
2019-11-19 08:00:00 4.4 16 Sudoeste 32 Sur 0 1000.7 -0.8 84
2019-11-19 07:00:00 4.1 21 Sudoeste 32 Sudoeste 0 1000.9 -0.9 91
2019-11-19 06:00:00 4.4 18 Sudoeste 28 Sudoeste 0 1001.2 -0.7 93
2019-11-19 05:00:00 4.9 17 Sudoeste 28 Sudoeste 0 1001.5 -0.8 92
2019-11-19 04:00:00 5.6 16 Sudoeste 33 Sudoeste 0 1001.8 -1.1 89
2019-11-19 03:00:00 6 17 Sudoeste 28 Sudoeste 0 1001.9 -1.4 91
2019-11-19 02:00:00 6 15 Sudoeste 24 Sudoeste 0 1002.3 -1.1 94
2019-11-19 01:00:00 6.6 15 Sudoeste 22 Sudoeste 0 1002.9 -0.9 92
2019-11-19 00:00:00 6.8 13 Sudoeste 21 Sur 0 1003.3 -0.9 94
2019-11-18 23:00:00 7.5 12 Sudoeste 17 Sudoeste 0 1003.4 -0.5 86
2019-11-18 22:00:00 7.5 11 Sur 17 Sur 0 1003.8 0 94
2019-11-18 21:00:00 7.9 14 Sudoeste 21 Sudoeste 0 1004.2 0.6 92
2019-11-18 20:00:00 8.6 12 Sudoeste 17 Sudoeste 0 1003.9 0.4 89
2019-11-18 19:00:00 8.1 10 Sudoeste 18 Sudoeste 0 1003.8 0.3 91
2019-11-18 18:00:00 8.5 9 Sudoeste 24 Oeste 0 1003.6 0.4 92
2019-11-18 17:00:00 10 11 Sudoeste 17 Sudoeste 0.2 1003.5 0.1 89
2019-11-18 16:00:00 11 7 Sudoeste 18 Sur 0 1003.5 0 80
2019-11-18 15:00:00 10.4 9 Sudoeste 15 Oeste 0.3 1003.2 -0.5 88
2019-11-18 14:00:00 10.5 10 Oeste 24 Oeste 0.1 1003.4 -0.2 85
2019-11-18 13:00:00 11.6 11 Oeste 28 Oeste 0 1003.5 0.3 81
2019-11-18 12:00:00 9.7 9 Sudoeste 18 Sudoeste 0.3 1003.7 0.9 86
2019-11-18 11:00:00 8 14 Sudoeste 28 Sudoeste 0.5 1003.6 1.7 92
2019-11-18 10:00:00 7.9 13 Sudoeste 22 Sudoeste 2.1 1003.2 1.7 95
2019-11-18 09:00:00 7.5 10 Sur 24 Sudoeste 0.4 1002.8 1.9 93
2019-11-18 08:00:00 7.4 13 Sudoeste 28 Sudoeste 0 1001.9 1.5 95
2019-11-18 07:00:00 7 10 Sudoeste 15 Sudoeste 0 1001.5 1.5 97
2019-11-18 06:00:00 7.3 4 Oeste 15 Sudoeste 0 1000.9 1.1 95
2019-11-18 05:00:00 7.3 10 Oeste 17 Sudoeste 0 1000.4 0.7 97
2019-11-18 04:00:00 7.6 15 Sudoeste 26 Sudoeste 1.1 1000 0.3 97
2019-11-18 03:00:00 7.6 10 Sudoeste 24 Sudoeste 0.6 999.8 0.7 97
2019-11-18 02:00:00 7.9 11 Sudoeste 17 Sudoeste 3.3 999.7 1 97
2019-11-18 01:00:00 8.8 6 Sudoeste 17 Este 1.1 999.7 1.3 92
2019-11-18 00:00:00 10.3 7 Nordeste 35 Nordeste 0 999.1 1.3 73
2019-11-17 23:00:00 9.6 5 Este 21 Sur 0.4 998.7 1.7 87
2019-11-17 22:00:00 10.6 5 Sudeste 21 Este 0 998.4 2.5 71
2019-11-17 21:00:00 10.4 8 Sudeste 22 Nordeste 0 997.8 2.9 81
2019-11-17 20:00:00 9.8 9 Sudeste 37 Oeste 2.1 997 2.1 94
2019-11-17 19:00:00 9.6 9 Sur 72 Noroeste 3.9 995.9 1.2 93
2019-11-17 18:00:00 8.8 30 Oeste 61 Oeste 1.2 994.9 0.2 85
2019-11-17 17:00:00 9.3 31 Oeste 72 Oeste 1.4 994.9 -0.4 86
2019-11-17 16:00:00 11 28 Oeste 58 Oeste 0.3 994.7 -0.9 72
2019-11-17 15:00:00 11.4 30 Oeste 50 Oeste 0 994.7 -1.3 68
2019-11-17 14:00:00 10.8 30 Oeste 52 Oeste 0 995.3 -0.6 69
2019-11-17 13:00:00 10.3 31 Oeste 55 Oeste 0.3 995.6 -0.1 81
2019-11-17 12:00:00 10.2 33 Oeste 50 Oeste 1.1 996 0.8 81
2019-11-17 11:00:00 10.7 37 Oeste 52 Oeste 0.2 995.9 1.3 86
2019-11-17 10:00:00 10.8 26 Oeste 48 Oeste 0.1 995.7 1.1 84
2019-11-17 09:00:00 10.3 27 Oeste 55 Oeste 0.2 995.2 1 94
2019-11-17 08:00:00 10.7 29 Oeste 46 Oeste 0.2 994.6 -0.3 91
2019-11-17 07:00:00 10.9 24 Oeste 46 Oeste 0.2 994.6 -1.3 92
2019-11-17 06:00:00 9.8 18 Sudoeste 37 Sudoeste 0.6 994.2 -2.2 86
2019-11-17 05:00:00 9.8 22 Sudoeste 33 Sudoeste 0.1 994.9 -2 84
2019-11-17 04:00:00 10.6 18 Sudoeste 30 Sudoeste 0 995.9 -1.7 72
2019-11-17 03:00:00 10.4 18 Sudoeste 33 Sur 0 996.4 -1.9 69
2019-11-17 02:00:00 10.1 19 Sudoeste 33 Sur 0 996.9 -1.6 68
2019-11-17 01:00:00 9.9 21 Sudoeste 32 Sudoeste 0 997.6 -1.4 68
2019-11-17 00:00:00 9.4 19 Sudoeste 33 Sudoeste 0 998.3 -1 69
2019-11-16 23:00:00 9.1 21 Sudoeste 32 Sudoeste 0 998.5 -0.9 71
2019-11-16 22:00:00 8.8 19 Sudoeste 32 Sudoeste 0 999 -0.8 69
2019-11-16 21:00:00 8.7 18 Sudoeste 32 Sudoeste 0 999.3 -0.5 69
2019-11-16 20:00:00 8.7 21 Sudoeste 33 Sudoeste 0 999.4 -0.2 69
2019-11-16 19:00:00 8.6 15 Sudoeste 26 Oeste 0 999.8 0.1 70
2019-11-16 18:00:00 9.2 15 Oeste 33 Oeste 0 999.8 0.4 69
2019-11-16 17:00:00 9 16 Oeste 32 Sudoeste 0.6 999.6 0.3 76
2019-11-16 16:00:00 9 16 Oeste 54 Oeste 0.1 999.7 0.2 71
2019-11-16 15:00:00 10.1 32 Oeste 48 Oeste 0 999.4 -0.3 66
2019-11-16 14:00:00 10.1 27 Oeste 48 Oeste 0 999.3 -0.4 66
2019-11-16 13:00:00 8.7 29 Oeste 54 Oeste 1.1 999.5 0.1 77
2019-11-16 12:00:00 9.5 28 Oeste 42 Noroeste 0 999.7 0.9 70
2019-11-16 11:00:00 8.1 18 Sudoeste 32 Sudoeste 0 999.7 1.4 79
2019-11-16 10:00:00 8.8 22 Oeste 37 Oeste 0 999.4 1.3 73
2019-11-16 09:00:00 6.1 14 Sudoeste 30 Sudoeste 0 998.8 1.3 89
2019-11-16 08:00:00 5.9 18 Sudoeste 33 Sudoeste 0.1 998.3 0.8 90
2019-11-16 07:00:00 5.6 20 Sudoeste 32 Sudoeste 0.5 998.1 0.5 92
2019-11-16 06:00:00 5.6 24 Sudoeste 35 Sur 0.1 997.5 0.1 90
2019-11-16 05:00:00 5.4 20 Sudoeste 33 Sudoeste 0.8 997.5 0.5 92
2019-11-16 04:00:00 5.4 20 Sudoeste 32 Sudoeste 1.1 997.6 1.3 91
2019-11-16 03:00:00 5.6 13 Sudoeste 28 Sudoeste 0 997.4 1.7 88
2019-11-16 02:00:00 5.6 12 Sudoeste 22 Sudoeste 0 997 1.8 87
2019-11-16 01:00:00 8.7 10 Sudoeste 22 Sudoeste 0 996.3 1.4 77
2019-11-16 00:00:00 9.4 10 Sur 30 Oeste 0.9 995.7 1.5 78
2019-11-15 23:00:00 8.9 9 Oeste 35 Oeste 0.1 995.2 1.2 75
2019-11-15 22:00:00 8.5 7 Noroeste 33 Oeste 0.1 994.9 1.6 74
2019-11-15 21:00:00 8.3 8 Sudoeste 32 Nordeste 1.2 994.2 1.6 79
2019-11-15 20:00:00 7.7 17 Noroeste 35 Noroeste 2.1 994 1.9 77
2019-11-15 19:00:00 9.1 9 Oeste 26 Noroeste 0 993.3 1.7 63
2019-11-15 18:00:00 8.1 10 Oeste 35 Norte 0.3 992.6 1.4 77
2019-11-15 17:00:00 8.8 10 Noroeste 33 Noroeste 0.4 992.1 0.6 72
2019-11-15 16:00:00 10.1 9 Noroeste 41 Oeste 0.1 991.6 0 70
2019-11-15 15:00:00 10.2 16 Noroeste 41 Noroeste 0.1 991.2 -1 66
2019-11-15 14:00:00 9.1 12 Oeste 45 Oeste 0.2 991.5 -0.3 80
2019-11-15 13:00:00 7.7 27 Noroeste 48 Noroeste 6.5 991.6 -0.5 86
2019-11-15 12:00:00 8.3 13 Noroeste 46 Oeste 1.9 992.2 0.8 76
2019-11-15 11:00:00 7.8 12 Oeste 41 Oeste 2.6 991.8 1.1 90
2019-11-15 10:00:00 8.1 23 Noroeste 48 Noroeste 0.4 992.1 1.8 78
2019-11-15 09:00:00 8.6 12 Oeste 45 Oeste 0 991.4 1.6 79
2019-11-15 08:00:00 8.7 26 Noroeste 58 Noroeste 0.4 990.7 1.4 75
2019-11-15 07:00:00 10 29 Noroeste 58 Norte 0 990.3 1 71
2019-11-15 06:00:00 9.3 19 Noroeste 48 Noroeste 0.4 989.8 0.9 78
2019-11-15 05:00:00 9.1 14 Oeste 48 Oeste 0.4 989.3 -0.1 79
2019-11-15 04:00:00 9 14 Noroeste 41 Oeste 0.3 989.3 0.1 78
2019-11-15 03:00:00 9.6 15 Noroeste 48 Oeste 0 988.9 0.2 76
2019-11-15 02:00:00 8.2 12 Noroeste 41 Oeste 0.2 989.4 1.1 76
2019-11-15 01:00:00 8 10 Noroeste 48 Noroeste 2 989.2 1.6 77
2019-11-15 00:00:00 9.3 10 Sudoeste 39 Noroeste 0 988.7 1.4 74
2019-11-14 23:00:00 8.7 17 Noroeste 50 Norte 1.3 988.3 1.7 78
2019-11-14 22:00:00 9 10 Oeste 32 Norte 0.3 987.6 1.9 80
2019-11-14 21:00:00 8.6 9 Oeste 42 Noroeste 0.6 987.3 2.2 83
2019-11-14 20:00:00 9.2 8 Sur 48 Oeste 0.1 986.6 2.2 78
2019-11-14 19:00:00 9.2 18 Noroeste 46 Noroeste 1.2 985.7 2.6 75
2019-11-14 18:00:00 8.9 8 Noroeste 37 Noroeste 0.6 985.1 2.2 76
2019-11-14 17:00:00 8.5 8 Sudeste 45 Noroeste 0.6 984.4 2 84
2019-11-14 16:00:00 8.3 23 Noroeste 42 Oeste 1.3 983.1 1.2 88
2019-11-14 15:00:00 6.3 18 Sudoeste 35 Sudoeste 0.1 982.9 0.2 86
2019-11-14 14:00:00 8 21 Oeste 35 Sudoeste 0 982.4 -1.4 68
2019-11-14 13:00:00 8.5 27 Sudoeste 45 Sudoeste 0 981.9 -2.8 66
2019-11-14 12:00:00 8.5 26 Sudoeste 46 Sudoeste 0 982.7 -2.9 67
2019-11-14 11:00:00 8.1 26 Sudoeste 45 Sudoeste 0 983.8 -2.9 64
2019-11-14 10:00:00 7.1 27 Sudoeste 54 Sudoeste 0 984.7 -3.1 65
2019-11-14 09:00:00 6.1 23 Sudoeste 42 Sudoeste 0 985.6 -2.2 71
2019-11-14 08:00:00 6 26 Sudoeste 55 Oeste 0 986.7 -1.9 73
2019-11-14 07:00:00 7.5 42 Oeste 59 Noroeste 0.1 987.8 -1.6 64
2019-11-14 06:00:00 7 27 Oeste 65 Oeste 0.3 987.8 -2.2 66
2019-11-14 05:00:00 7.9 36 Oeste 63 Oeste 0 988.6 -1.7 64
2019-11-14 04:00:00 7.3 36 Oeste 68 Oeste 0.1 989.4 -1.3 68
2019-11-14 03:00:00 7 41 Oeste 82 Oeste 1.7 990 -0.6 76
2019-11-14 02:00:00 7.3 35 Oeste 74 Oeste 4.7 990.3 -0.8 89
2019-11-14 01:00:00 8.2 41 Oeste 72 Oeste 6.7 990.7 -1.1 89
2019-11-14 00:00:00 9.2 31 Oeste 63 Oeste 6.1 990.6 0.2 93
2019-11-13 23:00:00 9.7 37 Oeste 72 Oeste 7.3 991.1 -0.8 98
2019-11-13 22:00:00 10.1 52 Oeste 80 Oeste 5.6 991.8 -0.8 94
2019-11-13 21:00:00 13.2 37 Oeste 55 Sudoeste 0 990.4 -4.1 57
2019-11-13 20:00:00 13.4 35 Oeste 55 Oeste 0 991.9 -3.4 56
2019-11-13 19:00:00 13.2 26 Sudoeste 52 Oeste 0 992.6 -3.8 58
2019-11-13 18:00:00 12.7 26 Oeste 45 Oeste 0 994.5 -2.5 62
2019-11-13 17:00:00 12.4 15 Oeste 28 Oeste 0 995.3 -- 73
2019-11-13 16:00:00 12.3 19 Oeste 48 Oeste 0 996.4 -2.4 71
2019-11-13 15:00:00 12.7 24 Oeste -- -- -- 997 -2.5 72
2019-11-13 14:00:00 10.8 -- -- 42 Oeste 0 -- -- 90
2019-11-13 13:00:00 12.1 13 Oeste 28 Noroeste 0 998.8 -0.1 84
2019-11-13 12:00:00 11.9 14 Oeste 22 Oeste 0 999.5 0.9 89
2019-11-13 11:00:00 11.3 10 Oeste 15 Oeste 0 999.1 1.5 99
2019-11-13 10:00:00 10.5 10 Sudoeste 22 Oeste 0 998.9 2.4 99
2019-11-13 09:00:00 10.4 6 Sudoeste -- -- -- 998.6 3 96
2019-11-13 08:00:00 11.1 2 Norte 18 Nordeste 0 997.6 2.9 83
2019-11-13 07:00:00 11.1 7 Nordeste 32 Nordeste 0 996.5 2.8 81
2019-11-13 06:00:00 10.5 17 Nordeste 45 Nordeste 0 995.6 2.8 99
2019-11-13 05:00:00 11.2 14 Nordeste 28 Nordeste 0 994.7 2.7 100
2019-11-13 04:00:00 11.1 8 Nordeste 24 Nordeste 0 993.7 3.3 100
2019-11-13 03:00:00 11.3 8 Nordeste 24 Nordeste 0 992.8 3.1 100
2019-11-13 02:00:00 11.1 6 Nordeste 15 Nordeste 0 992 2.5 100
2019-11-13 01:00:00 11 5 Este 13 Este 1.8 990.4 0.6 100
2019-11-13 00:00:00 11 5 Este 18 Sudeste 1.2 989.7 0.1 100
2019-11-12 23:00:00 10.9 15 Sudeste 22 Sudeste 3.7 989.5 -0.7 100
2019-11-12 22:00:00 11.1 16 Sudeste 22 Este 7.9 989.8 -1.1 100
2019-11-12 21:00:00 12.4 3 Oeste 17 Sudoeste 5.2 989.6 -1.5 100
2019-11-12 20:00:00 12 12 Sudoeste 18 Sudoeste 3.2 990.2 -2.2 100
2019-11-12 19:00:00 11.3 8 Sudeste 17 Sudoeste 2.6 990.9 -2.4 99
2019-11-12 18:00:00 11.6 9 Sur 18 Sur 2 991.1 -3.9 95
2019-11-12 17:00:00 10.7 7 Sur 18 Sudeste 1.6 992.4 -4.5 97
2019-11-12 16:00:00 10.7 15 Sudeste 26 Sudoeste 0.8 993.3 -5.5 97
2019-11-12 15:00:00 11.3 8 Sur 26 Sudoeste 0.6 995 -4.9 86
2019-11-12 14:00:00 11.7 14 Sudoeste 32 Sudoeste 0.4 996.9 -3.5 80
2019-11-12 13:00:00 12.2 15 Sudoeste 28 Sudoeste 0 998.8 -2.3 75
2019-11-12 12:00:00 12.5 18 Sudoeste 33 Sudoeste 0 999.9 -1.7 68
2019-11-12 11:00:00 11.4 17 Sudoeste 30 Sudoeste 0 1000.4 -1.4 74
2019-11-12 10:00:00 9.6 18 Sudoeste 28 Sudoeste 0 1001.1 -0.9 81
2019-11-12 09:00:00 9.1 17 Sudoeste 26 Sudoeste 0 1001.6 -1.1 85
2019-11-12 08:00:00 9.1 14 Sudoeste 30 Oeste 0 1001.8 -0.8 86
2019-11-12 07:00:00 9.3 14 Oeste 33 Sudoeste 0.2 1002 -1 80
2019-11-12 06:00:00 9.5 16 Sudoeste 28 Sudoeste 0 1002.7 -0.8 76
2019-11-12 05:00:00 9.5 14 Sudoeste 26 Sudoeste 0 1002.6 -1.8 76
2019-11-12 04:00:00 9.3 16 Sudoeste 30 Sudoeste 0 1003 -1.8 79
2019-11-12 03:00:00 9.1 18 Sudoeste 32 Sudoeste 0 1003.5 -1.6 84
2019-11-12 02:00:00 8.9 14 Sudoeste 35 Oeste 0.2 1004.4 -0.7 88
2019-11-12 01:00:00 9.5 20 Oeste 33 Oeste 0.2 1004.8 -0.9 85
2019-11-12 00:00:00 8.8 17 Sudoeste 26 Sudoeste 0 1005.1 -0.7 90
2019-11-11 23:00:00 8.6 18 Sudoeste 28 Sudoeste 0 1005.1 -0.8 94
2019-11-11 22:00:00 9.1 15 Sudoeste 24 Sudoeste 0.2 1005.7 -0.2 92
2019-11-11 21:00:00 9.3 12 Sudoeste 22 Oeste 1.3 1005.8 0.2 89
2019-11-11 20:00:00 10 11 Sudoeste 21 Oeste 0 1005.9 0.6 80
2019-11-11 19:00:00 10.8 14 Oeste 30 Oeste 0 1005.9 0.6 73
2019-11-11 18:00:00 11.6 13 Oeste 24 Oeste 0 1005.6 0.3 67
2019-11-11 17:00:00 12.3 13 Noroeste 22 Noroeste 0 1005.3 0 59
2019-11-11 16:00:00 12.5 12 Noroeste 30 Noroeste 0 1005.3 0 61
2019-11-11 15:00:00 12.9 13 Noroeste 24 Noroeste 0 1005.3 -0.2 62
2019-11-11 14:00:00 12.9 11 Oeste 30 Norte 0 1005.3 0.6 70
2019-11-11 13:00:00 13.2 15 Noroeste 26 Noroeste 0 1005.3 1.4 60
2019-11-11 12:00:00 12.9 9 Oeste 32 Oeste 0 1005.5 3.2 71
2019-11-11 11:00:00 13.2 13 Oeste 35 Oeste 0 1004.7 3.5 73
2019-11-11 10:00:00 13.1 21 Noroeste 46 Noroeste 0 1003.9 4.3 82
2019-11-11 09:00:00 13.4 23 Noroeste 46 Noroeste 0 1002.3 2.7 83
2019-11-11 08:00:00 13 17 Noroeste 54 Oeste 3.1 1001.2 0.7 100
2019-11-11 07:00:00 13.7 38 Oeste 54 Oeste 0.2 999.6 -1.5 100
2019-11-11 06:00:00 10.7 16 Sudoeste 33 Sudoeste 1.2 999.6 -1.7 100
2019-11-11 05:00:00 9.5 15 Sudoeste 30 Sur 0.8 1000.5 -1.6 99
2019-11-11 04:00:00 9.3 14 Sudoeste 26 Sudoeste 0 1001.1 -1.8 89
2019-11-11 03:00:00 9.2 17 Sudoeste 26 Sudoeste 0 1001.3 -1.5 85
2019-11-11 02:00:00 8.7 15 Sudoeste 28 Sudoeste 0.2 1002.1 -1.4 86
2019-11-11 01:00:00 8.7 16 Sudoeste 28 Sudoeste 0 1002.9 -0.7 82
2019-11-11 00:00:00 8.4 18 Sudoeste 28 Sudoeste 0 1002.8 -1.1 82
2019-11-10 23:00:00 8.5 17 Sudoeste 30 Sudoeste 0 1003.5 -1 79
2019-11-10 22:00:00 8.3 18 Sudoeste 28 Sudoeste 0 1003.6 -1 82
2019-11-10 21:00:00 8.2 18 Sudoeste 32 Sudoeste 0 1003.9 -0.6 85
2019-11-10 20:00:00 8.4 19 Sudoeste 32 Sudoeste 0 1004.5 0.4 86
2019-11-10 19:00:00 8.6 15 Sudoeste 32 Sudoeste 0.2 1004.6 0.3 91
2019-11-10 18:00:00 9.1 19 Oeste 37 Oeste 0.6 1004.5 0.6 90
2019-11-10 17:00:00 9.9 31 Oeste 46 Oeste 0 1004.1 0 88
2019-11-10 16:00:00 10.4 28 Oeste 52 Noroeste 0 1004.3 0.4 84
2019-11-10 15:00:00 10.3 25 Noroeste 59 Oeste 0.4 1003.9 -0.2 80
2019-11-10 14:00:00 10.1 23 Noroeste 55 Oeste 1 1004.1 0 82
2019-11-10 13:00:00 10.6 16 Noroeste 50 Norte 0.4 1003.9 0.5 78
2019-11-10 12:00:00 9.7 28 Noroeste 61 Noroeste 1.5 1004.1 0.9 89
2019-11-10 11:00:00 11.5 27 Noroeste 54 Noroeste 0.4 1004.1 1 76
2019-11-10 10:00:00 11.4 26 Noroeste 65 Oeste 0.8 1003.4 0.1 77
2019-11-10 09:00:00 11.4 36 Oeste 59 Noroeste 0 1003.2 -0.3 74
2019-11-10 08:00:00 11.5 26 Noroeste 52 Oeste 0 1003.1 -0.6 70
2019-11-10 07:00:00 9.9 30 Oeste 55 Oeste 0.2 1003.3 -0.9 76
2019-11-10 06:00:00 9.9 31 Oeste 58 Oeste 0.2 1003.5 -1 78
2019-11-10 05:00:00 8.8 27 Oeste 48 Oeste 1.5 1003.7 -0.9 83
2019-11-10 04:00:00 9.8 29 Oeste 54 Oeste 0 1004.2 -0.5 72
2019-11-10 03:00:00 10.2 35 Oeste 58 Oeste 0 1004.5 -0.1 70
2019-11-10 02:00:00 11 28 Oeste 55 Oeste 0 1004.6 0.1 64
2019-11-10 01:00:00 11.5 30 Noroeste 48 Noroeste 0 1004.7 0.9 56
2019-11-10 00:00:00 9.8 35 Oeste 65 Noroeste 0 1004.6 0.8 79